sensor_id;sensor_type;location;lat;lon;timestamp;P1;durP1;ratioP1;P2;durP2;ratioP2
53253;SDS011;39148;53.332;6.922;2022-09-12T00:00:38;1.75;;;0.93;;
53253;SDS011;39148;53.332;6.922;2022-09-12T00:03:03;2.30;;;1.15;;
53253;SDS011;39148;53.332;6.922;2022-09-12T00:05:29;2.30;;;1.15;;
53253;SDS011;39148;53.332;6.922;2022-09-12T00:07:56;2.20;;;1.00;;
53253;SDS011;39148;53.332;6.922;2022-09-12T00:10:22;2.30;;;1.00;;
53253;SDS011;39148;53.332;6.922;2022-09-12T00:12:48;2.42;;;1.20;;
53253;SDS011;39148;53.332;6.922;2022-09-12T00:15:14;2.42;;;1.25;;
53253;SDS011;39148;53.332;6.922;2022-09-12T00:17:40;2.15;;;1.15;;
53253;SDS011;39148;53.332;6.922;2022-09-12T00:20:06;2.35;;;1.20;;
53253;SDS011;39148;53.332;6.922;2022-09-12T00:22:33;2.08;;;1.00;;
53253;SDS011;39148;53.332;6.922;2022-09-12T00:24:59;3.10;;;1.23;;
53253;SDS011;39148;53.332;6.922;2022-09-12T00:27:26;2.65;;;1.23;;
53253;SDS011;39148;53.332;6.922;2022-09-12T00:29:52;2.50;;;1.17;;
53253;SDS011;39148;53.332;6.922;2022-09-12T00:32:18;2.97;;;1.40;;
53253;SDS011;39148;53.332;6.922;2022-09-12T00:34:44;2.60;;;1.40;;
53253;SDS011;39148;53.332;6.922;2022-09-12T00:37:09;2.63;;;1.38;;
53253;SDS011;39148;53.332;6.922;2022-09-12T00:39:35;2.63;;;1.30;;
53253;SDS011;39148;53.332;6.922;2022-09-12T00:42:01;2.58;;;1.30;;
53253;SDS011;39148;53.332;6.922;2022-09-12T00:47:26;3.70;;;1.45;;
53253;SDS011;39148;53.332;6.922;2022-09-12T00:52:48;4.20;;;1.40;;
53253;SDS011;39148;53.332;6.922;2022-09-12T00:55:21;2.38;;;1.45;;
53253;SDS011;39148;53.332;6.922;2022-09-12T00:58:07;2.83;;;1.60;;
53253;SDS011;39148;53.332;6.922;2022-09-12T01:00:40;3.47;;;1.63;;
53253;SDS011;39148;53.332;6.922;2022-09-12T01:03:07;2.88;;;1.60;;
53253;SDS011;39148;53.332;6.922;2022-09-12T01:05:36;2.97;;;1.60;;
53253;SDS011;39148;53.332;6.922;2022-09-12T01:08:10;2.30;;;1.50;;
53253;SDS011;39148;53.332;6.922;2022-09-12T01:10:37;3.38;;;1.70;;
53253;SDS011;39148;53.332;6.922;2022-09-12T01:13:05;2.97;;;1.88;;
53253;SDS011;39148;53.332;6.922;2022-09-12T01:15:32;2.53;;;1.60;;
53253;SDS011;39148;53.332;6.922;2022-09-12T01:18:19;3.20;;;1.90;;
53253;SDS011;39148;53.332;6.922;2022-09-12T01:20:49;2.70;;;1.50;;
53253;SDS011;39148;53.332;6.922;2022-09-12T01:29:13;3.33;;;2.13;;
53253;SDS011;39148;53.332;6.922;2022-09-12T01:32:21;3.42;;;2.10;;
53253;SDS011;39148;53.332;6.922;2022-09-12T01:40:47;3.80;;;2.60;;
53253;SDS011;39148;53.332;6.922;2022-09-12T01:43:44;4.05;;;2.15;;
53253;SDS011;39148;53.332;6.922;2022-09-12T01:46:18;4.00;;;2.20;;
53253;SDS011;39148;53.332;6.922;2022-09-12T01:51:56;4.05;;;2.30;;
53253;SDS011;39148;53.332;6.922;2022-09-12T01:54:50;5.65;;;2.25;;
53253;SDS011;39148;53.332;6.922;2022-09-12T01:57:59;4.18;;;2.67;;
53253;SDS011;39148;53.332;6.922;2022-09-12T02:00:20;3.72;;;2.40;;
53253;SDS011;39148;53.332;6.922;2022-09-12T02:02:48;4.00;;;2.50;;
53253;SDS011;39148;53.332;6.922;2022-09-12T02:08:02;4.35;;;3.00;;
53253;SDS011;39148;53.332;6.922;2022-09-12T02:10:40;5.25;;;2.67;;
53253;SDS011;39148;53.332;6.922;2022-09-12T02:13:15;4.10;;;2.63;;
53253;SDS011;39148;53.332;6.922;2022-09-12T02:15:47;4.90;;;2.78;;
53253;SDS011;39148;53.332;6.922;2022-09-12T02:18:18;4.28;;;2.50;;
53253;SDS011;39148;53.332;6.922;2022-09-12T02:20:46;5.25;;;2.95;;
53253;SDS011;39148;53.332;6.922;2022-09-12T02:23:14;4.60;;;3.08;;
53253;SDS011;39148;53.332;6.922;2022-09-12T02:25:45;4.40;;;2.70;;
53253;SDS011;39148;53.332;6.922;2022-09-12T02:28:14;5.88;;;2.88;;
53253;SDS011;39148;53.332;6.922;2022-09-12T02:33:23;4.90;;;2.88;;
53253;SDS011;39148;53.332;6.922;2022-09-12T02:36:06;5.65;;;3.45;;
53253;SDS011;39148;53.332;6.922;2022-09-12T02:38:41;4.50;;;2.75;;
53253;SDS011;39148;53.332;6.922;2022-09-12T02:41:09;5.53;;;3.20;;
53253;SDS011;39148;53.332;6.922;2022-09-12T02:43:38;6.55;;;3.40;;
53253;SDS011;39148;53.332;6.922;2022-09-12T02:46:05;5.57;;;3.40;;
53253;SDS011;39148;53.332;6.922;2022-09-12T02:48:35;4.53;;;3.08;;
53253;SDS011;39148;53.332;6.922;2022-09-12T02:51:04;6.28;;;3.70;;
53253;SDS011;39148;53.332;6.922;2022-09-12T02:53:30;5.65;;;3.22;;
53253;SDS011;39148;53.332;6.922;2022-09-12T02:55:56;5.15;;;3.45;;
53253;SDS011;39148;53.332;6.922;2022-09-12T02:58:22;6.10;;;3.85;;
53253;SDS011;39148;53.332;6.922;2022-09-12T03:06:52;5.10;;;3.83;;
53253;SDS011;39148;53.332;6.922;2022-09-12T03:12:45;5.72;;;4.28;;
53253;SDS011;39148;53.332;6.922;2022-09-12T03:20:59;8.38;;;5.25;;
53253;SDS011;39148;53.332;6.922;2022-09-12T03:23:31;6.03;;;4.90;;
53253;SDS011;39148;53.332;6.922;2022-09-12T03:26:18;6.75;;;5.60;;
53253;SDS011;39148;53.332;6.922;2022-09-12T03:28:50;6.78;;;4.60;;
53253;SDS011;39148;53.332;6.922;2022-09-12T03:31:18;6.18;;;4.82;;
53253;SDS011;39148;53.332;6.922;2022-09-12T03:33:44;7.78;;;4.65;;
53253;SDS011;39148;53.332;6.922;2022-09-12T03:36:23;7.32;;;5.43;;
53253;SDS011;39148;53.332;6.922;2022-09-12T03:38:51;5.90;;;4.72;;
53253;SDS011;39148;53.332;6.922;2022-09-12T03:41:17;6.90;;;4.90;;
53253;SDS011;39148;53.332;6.922;2022-09-12T03:43:43;6.35;;;4.50;;
53253;SDS011;39148;53.332;6.922;2022-09-12T03:46:09;6.20;;;4.80;;
53253;SDS011;39148;53.332;6.922;2022-09-12T03:48:35;6.75;;;5.03;;
53253;SDS011;39148;53.332;6.922;2022-09-12T03:51:05;6.85;;;5.10;;
53253;SDS011;39148;53.332;6.922;2022-09-12T03:53:32;6.35;;;4.72;;
53253;SDS011;39148;53.332;6.922;2022-09-12T03:55:58;7.15;;;5.50;;
53253;SDS011;39148;53.332;6.922;2022-09-12T03:58:28;6.15;;;4.50;;
53253;SDS011;39148;53.332;6.922;2022-09-12T04:00:54;6.63;;;5.05;;
53253;SDS011;39148;53.332;6.922;2022-09-12T04:03:20;8.20;;;5.38;;
53253;SDS011;39148;53.332;6.922;2022-09-12T04:05:46;6.68;;;5.40;;
53253;SDS011;39148;53.332;6.922;2022-09-12T04:08:13;7.18;;;5.40;;
53253;SDS011;39148;53.332;6.922;2022-09-12T04:10:38;7.43;;;5.85;;
53253;SDS011;39148;53.332;6.922;2022-09-12T04:13:05;6.35;;;5.32;;
53253;SDS011;39148;53.332;6.922;2022-09-12T04:15:30;7.18;;;5.55;;
53253;SDS011;39148;53.332;6.922;2022-09-12T04:17:56;7.30;;;5.78;;
53253;SDS011;39148;53.332;6.922;2022-09-12T04:20:22;7.18;;;5.60;;
53253;SDS011;39148;53.332;6.922;2022-09-12T04:22:48;7.25;;;6.10;;
53253;SDS011;39148;53.332;6.922;2022-09-12T04:25:14;7.10;;;5.32;;
53253;SDS011;39148;53.332;6.922;2022-09-12T04:27:39;7.00;;;5.90;;
53253;SDS011;39148;53.332;6.922;2022-09-12T04:30:06;8.07;;;6.20;;
53253;SDS011;39148;53.332;6.922;2022-09-12T04:32:32;8.60;;;6.60;;
53253;SDS011;39148;53.332;6.922;2022-09-12T04:34:58;7.07;;;6.05;;
53253;SDS011;39148;53.332;6.922;2022-09-12T04:37:24;7.03;;;5.90;;
53253;SDS011;39148;53.332;6.922;2022-09-12T04:39:50;7.35;;;6.28;;
53253;SDS011;39148;53.332;6.922;2022-09-12T04:42:20;8.48;;;6.55;;
53253;SDS011;39148;53.332;6.922;2022-09-12T04:44:46;8.02;;;6.13;;
53253;SDS011;39148;53.332;6.922;2022-09-12T04:47:12;7.10;;;6.18;;
53253;SDS011;39148;53.332;6.922;2022-09-12T04:49:38;7.28;;;5.95;;
53253;SDS011;39148;53.332;6.922;2022-09-12T04:52:04;8.07;;;5.43;;
53253;SDS011;39148;53.332;6.922;2022-09-12T04:54:29;7.95;;;5.97;;
53253;SDS011;39148;53.332;6.922;2022-09-12T04:56:55;6.97;;;5.80;;
53253;SDS011;39148;53.332;6.922;2022-09-12T04:59:21;8.20;;;6.50;;
53253;SDS011;39148;53.332;6.922;2022-09-12T05:01:46;8.65;;;6.30;;
53253;SDS011;39148;53.332;6.922;2022-09-12T05:04:13;7.63;;;6.30;;
53253;SDS011;39148;53.332;6.922;2022-09-12T05:06:39;8.95;;;6.60;;
53253;SDS011;39148;53.332;6.922;2022-09-12T05:09:06;8.38;;;7.05;;
53253;SDS011;39148;53.332;6.922;2022-09-12T05:11:37;10.00;;;6.72;;
53253;SDS011;39148;53.332;6.922;2022-09-12T05:14:04;9.90;;;6.80;;
53253;SDS011;39148;53.332;6.922;2022-09-12T05:16:30;9.43;;;6.88;;
53253;SDS011;39148;53.332;6.922;2022-09-12T05:18:57;8.60;;;6.88;;
53253;SDS011;39148;53.332;6.922;2022-09-12T05:21:24;9.25;;;7.13;;
53253;SDS011;39148;53.332;6.922;2022-09-12T05:23:54;8.93;;;6.88;;
53253;SDS011;39148;53.332;6.922;2022-09-12T05:26:21;9.18;;;6.80;;
53253;SDS011;39148;53.332;6.922;2022-09-12T05:28:48;10.18;;;7.70;;
53253;SDS011;39148;53.332;6.922;2022-09-12T05:31:15;8.27;;;7.10;;
53253;SDS011;39148;53.332;6.922;2022-09-12T05:33:49;12.05;;;7.50;;
53253;SDS011;39148;53.332;6.922;2022-09-12T05:36:24;8.73;;;6.88;;
53253;SDS011;39148;53.332;6.922;2022-09-12T05:38:54;8.85;;;7.05;;
53253;SDS011;39148;53.332;6.922;2022-09-12T05:41:22;8.32;;;6.65;;
53253;SDS011;39148;53.332;6.922;2022-09-12T05:43:52;8.70;;;7.20;;
53253;SDS011;39148;53.332;6.922;2022-09-12T05:48:46;9.73;;;7.68;;
53253;SDS011;39148;53.332;6.922;2022-09-12T05:51:18;8.88;;;6.88;;
53253;SDS011;39148;53.332;6.922;2022-09-12T05:53:47;9.18;;;6.72;;
53253;SDS011;39148;53.332;6.922;2022-09-12T05:56:16;9.52;;;7.60;;
53253;SDS011;39148;53.332;6.922;2022-09-12T05:58:45;10.55;;;7.03;;
53253;SDS011;39148;53.332;6.922;2022-09-12T06:01:13;9.60;;;7.75;;
53253;SDS011;39148;53.332;6.922;2022-09-12T06:03:45;10.63;;;7.93;;
53253;SDS011;39148;53.332;6.922;2022-09-12T06:06:13;10.25;;;7.65;;
53253;SDS011;39148;53.332;6.922;2022-09-12T06:08:40;9.57;;;7.40;;
53253;SDS011;39148;53.332;6.922;2022-09-12T06:11:07;9.68;;;7.93;;
53253;SDS011;39148;53.332;6.922;2022-09-12T06:13:36;9.20;;;7.60;;
53253;SDS011;39148;53.332;6.922;2022-09-12T06:16:04;9.20;;;7.82;;
53253;SDS011;39148;53.332;6.922;2022-09-12T06:18:32;9.77;;;7.63;;
53253;SDS011;39148;53.332;6.922;2022-09-12T06:21:03;11.23;;;8.07;;
53253;SDS011;39148;53.332;6.922;2022-09-12T06:23:38;9.55;;;7.82;;
53253;SDS011;39148;53.332;6.922;2022-09-12T06:26:05;9.98;;;7.43;;
53253;SDS011;39148;53.332;6.922;2022-09-12T06:28:33;10.48;;;7.47;;
53253;SDS011;39148;53.332;6.922;2022-09-12T06:31:04;10.07;;;7.28;;
53253;SDS011;39148;53.332;6.922;2022-09-12T06:36:04;10.65;;;8.55;;
53253;SDS011;39148;53.332;6.922;2022-09-12T06:38:31;10.00;;;7.72;;
53253;SDS011;39148;53.332;6.922;2022-09-12T06:40:57;10.90;;;8.20;;
53253;SDS011;39148;53.332;6.922;2022-09-12T06:43:24;10.50;;;8.23;;
53253;SDS011;39148;53.332;6.922;2022-09-12T06:45:51;9.40;;;7.88;;
53253;SDS011;39148;53.332;6.922;2022-09-12T06:48:17;11.60;;;8.38;;
53253;SDS011;39148;53.332;6.922;2022-09-12T06:50:42;11.20;;;7.53;;
53253;SDS011;39148;53.332;6.922;2022-09-12T06:53:08;10.30;;;7.65;;
53253;SDS011;39148;53.332;6.922;2022-09-12T06:55:34;11.45;;;8.70;;
53253;SDS011;39148;53.332;6.922;2022-09-12T06:57:59;9.20;;;7.40;;
53253;SDS011;39148;53.332;6.922;2022-09-12T07:00:25;10.75;;;8.13;;
53253;SDS011;39148;53.332;6.922;2022-09-12T07:02:53;10.27;;;7.63;;
53253;SDS011;39148;53.332;6.922;2022-09-12T07:05:22;9.15;;;7.95;;
53253;SDS011;39148;53.332;6.922;2022-09-12T07:07:48;10.98;;;7.90;;
53253;SDS011;39148;53.332;6.922;2022-09-12T07:10:14;11.32;;;7.97;;
53253;SDS011;39148;53.332;6.922;2022-09-12T07:12:39;10.00;;;7.85;;
53253;SDS011;39148;53.332;6.922;2022-09-12T07:15:05;10.60;;;8.45;;
53253;SDS011;39148;53.332;6.922;2022-09-12T07:17:31;9.65;;;7.88;;
53253;SDS011;39148;53.332;6.922;2022-09-12T07:19:57;11.82;;;8.18;;
53253;SDS011;39148;53.332;6.922;2022-09-12T07:22:22;10.57;;;7.95;;
53253;SDS011;39148;53.332;6.922;2022-09-12T07:24:48;10.77;;;8.02;;
53253;SDS011;39148;53.332;6.922;2022-09-12T07:27:14;10.15;;;7.43;;
53253;SDS011;39148;53.332;6.922;2022-09-12T07:29:40;13.18;;;8.73;;
53253;SDS011;39148;53.332;6.922;2022-09-12T07:32:06;10.55;;;8.95;;
53253;SDS011;39148;53.332;6.922;2022-09-12T07:34:32;11.05;;;9.25;;
53253;SDS011;39148;53.332;6.922;2022-09-12T07:36:58;10.32;;;9.15;;
53253;SDS011;39148;53.332;6.922;2022-09-12T07:39:23;11.98;;;9.32;;
53253;SDS011;39148;53.332;6.922;2022-09-12T07:41:49;12.13;;;9.52;;
53253;SDS011;39148;53.332;6.922;2022-09-12T07:44:15;10.65;;;7.90;;
53253;SDS011;39148;53.332;6.922;2022-09-12T07:46:41;10.63;;;8.70;;
53253;SDS011;39148;53.332;6.922;2022-09-12T07:49:07;13.18;;;9.65;;
53253;SDS011;39148;53.332;6.922;2022-09-12T07:51:32;11.70;;;9.50;;
53253;SDS011;39148;53.332;6.922;2022-09-12T07:53:58;13.00;;;9.38;;
53253;SDS011;39148;53.332;6.922;2022-09-12T07:56:24;11.50;;;9.07;;
53253;SDS011;39148;53.332;6.922;2022-09-12T07:58:52;12.55;;;9.30;;
53253;SDS011;39148;53.332;6.922;2022-09-12T08:01:20;13.73;;;9.90;;
53253;SDS011;39148;53.332;6.922;2022-09-12T08:03:51;11.43;;;8.65;;
53253;SDS011;39148;53.332;6.922;2022-09-12T08:06:19;11.48;;;9.38;;
53253;SDS011;39148;53.332;6.922;2022-09-12T08:08:48;13.07;;;9.65;;
53253;SDS011;39148;53.332;6.922;2022-09-12T08:11:15;13.27;;;10.23;;
53253;SDS011;39148;53.332;6.922;2022-09-12T08:13:43;12.52;;;9.93;;
53253;SDS011;39148;53.332;6.922;2022-09-12T08:16:11;11.93;;;9.38;;
53253;SDS011;39148;53.332;6.922;2022-09-12T08:18:41;13.20;;;9.77;;
53253;SDS011;39148;53.332;6.922;2022-09-12T08:21:08;13.07;;;10.30;;
53253;SDS011;39148;53.332;6.922;2022-09-12T08:23:45;13.68;;;11.05;;
53253;SDS011;39148;53.332;6.922;2022-09-12T08:26:11;13.02;;;9.68;;
53253;SDS011;39148;53.332;6.922;2022-09-12T08:28:37;13.18;;;10.20;;
53253;SDS011;39148;53.332;6.922;2022-09-12T08:31:07;12.15;;;9.82;;
53253;SDS011;39148;53.332;6.922;2022-09-12T08:33:34;12.48;;;10.23;;
53253;SDS011;39148;53.332;6.922;2022-09-12T08:38:33;13.73;;;10.55;;
53253;SDS011;39148;53.332;6.922;2022-09-12T08:41:02;14.35;;;11.02;;
53253;SDS011;39148;53.332;6.922;2022-09-12T08:49:03;13.15;;;10.57;;
53253;SDS011;39148;53.332;6.922;2022-09-12T08:51:33;14.95;;;11.02;;
53253;SDS011;39148;53.332;6.922;2022-09-12T08:54:00;14.40;;;10.50;;
53253;SDS011;39148;53.332;6.922;2022-09-12T08:56:29;14.60;;;10.77;;
53253;SDS011;39148;53.332;6.922;2022-09-12T08:59:00;11.43;;;9.00;;
53253;SDS011;39148;53.332;6.922;2022-09-12T09:01:31;14.10;;;10.43;;
53253;SDS011;39148;53.332;6.922;2022-09-12T09:09:26;12.77;;;9.75;;
53253;SDS011;39148;53.332;6.922;2022-09-12T09:18:02;13.05;;;9.48;;
53253;SDS011;39148;53.332;6.922;2022-09-12T09:20:41;12.23;;;9.23;;
53253;SDS011;39148;53.332;6.922;2022-09-12T09:23:14;10.70;;;8.48;;
53253;SDS011;39148;53.332;6.922;2022-09-12T09:30:58;12.00;;;9.27;;
53253;SDS011;39148;53.332;6.922;2022-09-12T09:33:25;10.82;;;8.25;;
53253;SDS011;39148;53.332;6.922;2022-09-12T09:36:16;12.68;;;9.38;;
53253;SDS011;39148;53.332;6.922;2022-09-12T09:38:48;11.30;;;8.30;;
53253;SDS011;39148;53.332;6.922;2022-09-12T09:44:08;12.02;;;8.15;;
53253;SDS011;39148;53.332;6.922;2022-09-12T09:46:34;10.40;;;7.88;;
53253;SDS011;39148;53.332;6.922;2022-09-12T09:49:00;12.30;;;8.13;;
53253;SDS011;39148;53.332;6.922;2022-09-12T09:51:28;11.02;;;8.45;;
53253;SDS011;39148;53.332;6.922;2022-09-12T09:56:45;10.60;;;7.85;;
53253;SDS011;39148;53.332;6.922;2022-09-12T10:01:58;11.98;;;8.32;;
53253;SDS011;39148;53.332;6.922;2022-09-12T10:04:34;10.40;;;7.80;;
53253;SDS011;39148;53.332;6.922;2022-09-12T10:07:04;10.98;;;7.95;;
53253;SDS011;39148;53.332;6.922;2022-09-12T10:09:31;9.85;;;7.00;;
53253;SDS011;39148;53.332;6.922;2022-09-12T10:11:58;10.68;;;6.93;;
53253;SDS011;39148;53.332;6.922;2022-09-12T10:16:59;11.63;;;8.00;;
53253;SDS011;39148;53.332;6.922;2022-09-12T10:19:34;11.95;;;8.07;;
53253;SDS011;39148;53.332;6.922;2022-09-12T10:22:02;12.23;;;7.93;;
53253;SDS011;39148;53.332;6.922;2022-09-12T10:24:31;11.05;;;8.05;;
53253;SDS011;39148;53.332;6.922;2022-09-12T10:29:34;11.27;;;7.53;;
53253;SDS011;39148;53.332;6.922;2022-09-12T10:32:10;11.50;;;8.02;;
53253;SDS011;39148;53.332;6.922;2022-09-12T10:34:38;12.27;;;7.95;;
53253;SDS011;39148;53.332;6.922;2022-09-12T10:37:09;11.73;;;7.95;;
53253;SDS011;39148;53.332;6.922;2022-09-12T10:39:53;11.73;;;8.25;;
53253;SDS011;39148;53.332;6.922;2022-09-12T10:45:19;12.73;;;9.07;;
53253;SDS011;39148;53.332;6.922;2022-09-12T10:47:46;11.45;;;8.43;;
53253;SDS011;39148;53.332;6.922;2022-09-12T10:52:53;11.18;;;7.93;;
53253;SDS011;39148;53.332;6.922;2022-09-12T10:55:25;11.55;;;7.93;;
53253;SDS011;39148;53.332;6.922;2022-09-12T10:58:03;10.93;;;7.88;;
53253;SDS011;39148;53.332;6.922;2022-09-12T11:00:51;12.27;;;8.52;;
53253;SDS011;39148;53.332;6.922;2022-09-12T11:03:40;13.05;;;8.93;;
53253;SDS011;39148;53.332;6.922;2022-09-12T11:06:25;12.13;;;8.90;;
53253;SDS011;39148;53.332;6.922;2022-09-12T11:12:03;11.77;;;8.13;;
53253;SDS011;39148;53.332;6.922;2022-09-12T11:17:53;11.75;;;8.18;;
53253;SDS011;39148;53.332;6.922;2022-09-12T11:23:14;11.57;;;9.25;;
53253;SDS011;39148;53.332;6.922;2022-09-12T11:26:05;13.05;;;8.63;;
53253;SDS011;39148;53.332;6.922;2022-09-12T11:34:07;14.00;;;9.02;;
53253;SDS011;39148;53.332;6.922;2022-09-12T11:36:48;12.52;;;8.75;;
53253;SDS011;39148;53.332;6.922;2022-09-12T11:39:30;12.38;;;9.15;;
53253;SDS011;39148;53.332;6.922;2022-09-12T11:42:11;11.48;;;8.30;;
53253;SDS011;39148;53.332;6.922;2022-09-12T11:44:42;12.45;;;8.40;;
53253;SDS011;39148;53.332;6.922;2022-09-12T11:47:12;12.90;;;8.35;;
53253;SDS011;39148;53.332;6.922;2022-09-12T11:49:39;12.52;;;8.98;;
53253;SDS011;39148;53.332;6.922;2022-09-12T11:52:18;12.98;;;8.65;;
53253;SDS011;39148;53.332;6.922;2022-09-12T11:55:01;11.27;;;8.05;;
53253;SDS011;39148;53.332;6.922;2022-09-12T12:03:00;13.05;;;8.60;;
53253;SDS011;39148;53.332;6.922;2022-09-12T12:05:33;12.45;;;7.93;;
53253;SDS011;39148;53.332;6.922;2022-09-12T12:08:06;11.93;;;8.10;;
53253;SDS011;39148;53.332;6.922;2022-09-12T12:18:19;11.75;;;7.60;;
53253;SDS011;39148;53.332;6.922;2022-09-12T12:20:49;11.63;;;7.38;;
53253;SDS011;39148;53.332;6.922;2022-09-12T12:23:32;13.65;;;7.80;;
53253;SDS011;39148;53.332;6.922;2022-09-12T12:25:59;11.65;;;7.80;;
53253;SDS011;39148;53.332;6.922;2022-09-12T12:29:00;11.43;;;7.50;;
53253;SDS011;39148;53.332;6.922;2022-09-12T12:31:20;10.50;;;7.35;;
53253;SDS011;39148;53.332;6.922;2022-09-12T12:36:29;10.45;;;7.15;;
53253;SDS011;39148;53.332;6.922;2022-09-12T12:38:58;9.77;;;7.15;;
53253;SDS011;39148;53.332;6.922;2022-09-12T12:43:50;11.75;;;7.70;;
53253;SDS011;39148;53.332;6.922;2022-09-12T12:46:21;10.82;;;6.47;;
53253;SDS011;39148;53.332;6.922;2022-09-12T12:48:57;12.00;;;6.80;;
53253;SDS011;39148;53.332;6.922;2022-09-12T12:54:30;11.73;;;7.00;;
53253;SDS011;39148;53.332;6.922;2022-09-12T12:57:02;10.25;;;6.60;;
53253;SDS011;39148;53.332;6.922;2022-09-12T13:03:10;10.90;;;7.15;;
53253;SDS011;39148;53.332;6.922;2022-09-12T13:05:47;10.65;;;7.32;;
53253;SDS011;39148;53.332;6.922;2022-09-12T13:10:50;11.32;;;6.50;;
53253;SDS011;39148;53.332;6.922;2022-09-12T13:16:05;9.35;;;6.13;;
53253;SDS011;39148;53.332;6.922;2022-09-12T13:21:09;9.50;;;6.07;;
53253;SDS011;39148;53.332;6.922;2022-09-12T13:23:39;10.13;;;6.03;;
53253;SDS011;39148;53.332;6.922;2022-09-12T13:26:10;12.00;;;7.03;;
53253;SDS011;39148;53.332;6.922;2022-09-12T13:28:47;9.55;;;6.28;;
53253;SDS011;39148;53.332;6.922;2022-09-12T13:31:23;8.48;;;5.63;;
53253;SDS011;39148;53.332;6.922;2022-09-12T13:33:57;11.02;;;6.00;;
53253;SDS011;39148;53.332;6.922;2022-09-12T13:47:37;8.27;;;5.30;;
53253;SDS011;39148;53.332;6.922;2022-09-12T13:50:12;9.23;;;6.10;;
53253;SDS011;39148;53.332;6.922;2022-09-12T13:53:05;7.85;;;5.00;;
53253;SDS011;39148;53.332;6.922;2022-09-12T13:55:38;8.23;;;5.50;;
53253;SDS011;39148;53.332;6.922;2022-09-12T13:58:14;9.18;;;5.13;;
53253;SDS011;39148;53.332;6.922;2022-09-12T14:00:43;7.97;;;5.00;;
53253;SDS011;39148;53.332;6.922;2022-09-12T14:06:16;8.02;;;5.05;;
53253;SDS011;39148;53.332;6.922;2022-09-12T14:08:44;7.78;;;5.00;;
53253;SDS011;39148;53.332;6.922;2022-09-12T14:11:17;7.25;;;5.22;;
53253;SDS011;39148;53.332;6.922;2022-09-12T14:13:50;8.05;;;4.80;;
53253;SDS011;39148;53.332;6.922;2022-09-12T14:16:17;8.70;;;5.88;;
53253;SDS011;39148;53.332;6.922;2022-09-12T14:18:45;9.95;;;5.53;;
53253;SDS011;39148;53.332;6.922;2022-09-12T14:23:54;8.50;;;4.93;;
53253;SDS011;39148;53.332;6.922;2022-09-12T14:26:21;8.52;;;5.70;;
53253;SDS011;39148;53.332;6.922;2022-09-12T14:28:48;8.60;;;5.18;;
53253;SDS011;39148;53.332;6.922;2022-09-12T14:33:45;7.50;;;4.60;;
53253;SDS011;39148;53.332;6.922;2022-09-12T14:39:00;8.38;;;4.63;;
53253;SDS011;39148;53.332;6.922;2022-09-12T14:41:35;7.15;;;4.70;;
53253;SDS011;39148;53.332;6.922;2022-09-12T14:44:07;7.13;;;4.40;;
53253;SDS011;39148;53.332;6.922;2022-09-12T14:46:50;7.45;;;4.63;;
53253;SDS011;39148;53.332;6.922;2022-09-12T15:00:25;7.95;;;4.60;;
53253;SDS011;39148;53.332;6.922;2022-09-12T15:02:51;7.53;;;4.80;;
53253;SDS011;39148;53.332;6.922;2022-09-12T15:05:18;7.45;;;4.63;;
53253;SDS011;39148;53.332;6.922;2022-09-12T15:07:51;6.60;;;4.18;;
53253;SDS011;39148;53.332;6.922;2022-09-12T15:15:33;6.65;;;4.30;;
53253;SDS011;39148;53.332;6.922;2022-09-12T15:17:59;6.82;;;4.68;;
53253;SDS011;39148;53.332;6.922;2022-09-12T15:20:26;6.25;;;4.13;;
53253;SDS011;39148;53.332;6.922;2022-09-12T15:22:51;6.10;;;4.30;;
53253;SDS011;39148;53.332;6.922;2022-09-12T15:25:19;6.20;;;4.43;;
53253;SDS011;39148;53.332;6.922;2022-09-12T15:27:45;6.03;;;4.05;;
53253;SDS011;39148;53.332;6.922;2022-09-12T15:30:11;7.05;;;4.50;;
53253;SDS011;39148;53.332;6.922;2022-09-12T15:32:38;7.32;;;4.45;;
53253;SDS011;39148;53.332;6.922;2022-09-12T15:35:15;7.43;;;4.55;;
53253;SDS011;39148;53.332;6.922;2022-09-12T15:37:49;6.47;;;4.25;;
53253;SDS011;39148;53.332;6.922;2022-09-12T15:40:14;5.82;;;3.50;;
53253;SDS011;39148;53.332;6.922;2022-09-12T15:42:40;7.07;;;3.90;;
53253;SDS011;39148;53.332;6.922;2022-09-12T15:45:25;5.93;;;3.97;;
53253;SDS011;39148;53.332;6.922;2022-09-12T15:47:54;7.15;;;4.07;;
53253;SDS011;39148;53.332;6.922;2022-09-12T15:50:20;6.22;;;3.78;;
53253;SDS011;39148;53.332;6.922;2022-09-12T15:52:46;6.20;;;4.20;;
53253;SDS011;39148;53.332;6.922;2022-09-12T15:55:17;5.75;;;3.88;;
53253;SDS011;39148;53.332;6.922;2022-09-12T15:57:43;6.57;;;4.03;;
53253;SDS011;39148;53.332;6.922;2022-09-12T16:00:10;5.00;;;3.40;;
53253;SDS011;39148;53.332;6.922;2022-09-12T16:02:37;6.80;;;3.88;;
53253;SDS011;39148;53.332;6.922;2022-09-12T16:05:03;5.88;;;3.83;;
53253;SDS011;39148;53.332;6.922;2022-09-12T16:07:30;6.00;;;3.60;;
53253;SDS011;39148;53.332;6.922;2022-09-12T16:09:56;6.35;;;3.30;;
53253;SDS011;39148;53.332;6.922;2022-09-12T16:12:22;6.00;;;3.60;;
53253;SDS011;39148;53.332;6.922;2022-09-12T16:14:47;5.90;;;3.72;;
53253;SDS011;39148;53.332;6.922;2022-09-12T16:17:13;6.10;;;3.83;;
53253;SDS011;39148;53.332;6.922;2022-09-12T16:19:38;5.07;;;3.25;;
53253;SDS011;39148;53.332;6.922;2022-09-12T16:22:04;5.30;;;3.38;;
53253;SDS011;39148;53.332;6.922;2022-09-12T16:24:30;4.68;;;3.08;;
53253;SDS011;39148;53.332;6.922;2022-09-12T16:26:56;5.30;;;3.67;;
53253;SDS011;39148;53.332;6.922;2022-09-12T16:29:21;5.75;;;3.92;;
53253;SDS011;39148;53.332;6.922;2022-09-12T16:31:47;4.88;;;3.15;;
53253;SDS011;39148;53.332;6.922;2022-09-12T16:34:13;6.75;;;3.30;;
53253;SDS011;39148;53.332;6.922;2022-09-12T16:36:39;4.85;;;3.03;;
53253;SDS011;39148;53.332;6.922;2022-09-12T16:39:05;6.50;;;3.60;;
53253;SDS011;39148;53.332;6.922;2022-09-12T16:41:31;5.90;;;3.30;;
53253;SDS011;39148;53.332;6.922;2022-09-12T16:43:56;5.20;;;3.17;;
53253;SDS011;39148;53.332;6.922;2022-09-12T16:46:23;5.60;;;3.35;;
53253;SDS011;39148;53.332;6.922;2022-09-12T16:48:52;5.18;;;3.20;;
53253;SDS011;39148;53.332;6.922;2022-09-12T16:51:25;4.82;;;3.20;;
53253;SDS011;39148;53.332;6.922;2022-09-12T16:54:00;5.27;;;3.20;;
53253;SDS011;39148;53.332;6.922;2022-09-12T16:56:26;4.97;;;3.10;;
53253;SDS011;39148;53.332;6.922;2022-09-12T16:58:51;5.10;;;3.33;;
53253;SDS011;39148;53.332;6.922;2022-09-12T17:01:18;5.05;;;3.03;;
53253;SDS011;39148;53.332;6.922;2022-09-12T17:03:45;4.82;;;2.95;;
53253;SDS011;39148;53.332;6.922;2022-09-12T17:06:12;5.05;;;3.22;;
53253;SDS011;39148;53.332;6.922;2022-09-12T17:08:41;5.93;;;2.92;;
53253;SDS011;39148;53.332;6.922;2022-09-12T17:11:12;4.32;;;3.00;;
53253;SDS011;39148;53.332;6.922;2022-09-12T17:13:40;4.95;;;2.90;;
53253;SDS011;39148;53.332;6.922;2022-09-12T17:16:10;4.35;;;2.80;;
53253;SDS011;39148;53.332;6.922;2022-09-12T17:18:36;5.43;;;3.05;;
53253;SDS011;39148;53.332;6.922;2022-09-12T17:21:03;5.25;;;2.70;;
53253;SDS011;39148;53.332;6.922;2022-09-12T17:23:30;4.88;;;2.88;;
53253;SDS011;39148;53.332;6.922;2022-09-12T17:25:57;3.67;;;2.47;;
53253;SDS011;39148;53.332;6.922;2022-09-12T17:28:22;4.30;;;2.55;;
53253;SDS011;39148;53.332;6.922;2022-09-12T17:30:58;4.75;;;2.90;;
53253;SDS011;39148;53.332;6.922;2022-09-12T17:33:25;5.05;;;2.97;;
53253;SDS011;39148;53.332;6.922;2022-09-12T17:35:52;4.63;;;2.88;;
53253;SDS011;39148;53.332;6.922;2022-09-12T17:38:18;4.63;;;2.80;;
53253;SDS011;39148;53.332;6.922;2022-09-12T17:40:44;4.53;;;3.00;;
53253;SDS011;39148;53.332;6.922;2022-09-12T17:43:11;4.00;;;2.45;;
53253;SDS011;39148;53.332;6.922;2022-09-12T17:45:40;4.43;;;2.90;;
53253;SDS011;39148;53.332;6.922;2022-09-12T17:48:06;4.05;;;2.55;;
53253;SDS011;39148;53.332;6.922;2022-09-12T17:50:35;4.32;;;2.50;;
53253;SDS011;39148;53.332;6.922;2022-09-12T17:53:02;4.55;;;2.67;;